Time;durP1;ratioP1;P1;durP2;ratioP2;P2;SDS_P1;SDS_P2;PMS_P1;PMS_P2;Temp;Humidity;BMP_temperature;BMP_pressure;BME280_temperature;BME280_humidity;BME280_pressure;Samples;Min_cycle;Max_cycle;Signal;HPM_P1;HPM_P2
2023/03/28 00:01:42;;;;;;;2.93;1.90;;;;;;;;;;4977540;28;20452;-56
2023/03/28 00:04:10;;;;;;;3.07;1.87;;;;;;;;;;4966374;28;20615;-57
2023/03/28 00:06:37;;;;;;;2.53;1.87;;;;;;;;;;4979257;28;22049;-56
2023/03/28 00:09:09;;;;;;;3.93;2.30;;;;;;;;;;4974151;28;20440;-58
2023/03/28 00:11:38;;;;;;;3.50;1.37;;;;;;;;;;4957024;28;20446;-55
2023/03/28 00:14:07;;;;;;;2.57;1.63;;;;;;;;;;4984335;28;20444;-57
2023/03/28 00:16:33;;;;;;;1.90;1.20;;;;;;;;;;4980326;28;21134;-57
2023/03/28 00:19:01;;;;;;;4.60;1.80;;;;;;;;;;4971638;28;20447;-55
2023/03/28 00:21:28;;;;;;;2.57;2.37;;;;;;;;;;4969335;28;21327;-56
2023/03/28 00:24:01;;;;;;;4.43;1.77;;;;;;;;;;4983355;28;20420;-56
2023/03/28 00:26:27;;;;;;;3.10;1.50;;;;;;;;;;4924433;28;20450;-56
2023/03/28 00:28:54;;;;;;;2.10;1.67;;;;;;;;;;4990686;28;20425;-56
2023/03/28 00:31:23;;;;;;;1.97;1.50;;;;;;;;;;4962363;28;20695;-55
2023/03/28 00:33:49;;;;;;;6.67;1.70;;;;;;;;;;4987491;28;20452;-56
2023/03/28 00:36:21;;;;;;;6.63;1.60;;;;;;;;;;4988865;28;20429;-55
2023/03/28 00:38:48;;;;;;;4.30;1.70;;;;;;;;;;4965486;28;20437;-55
2023/03/28 00:41:14;;;;;;;2.70;1.30;;;;;;;;;;4988588;28;20467;-55
2023/03/28 00:43:44;;;;;;;2.97;1.60;;;;;;;;;;4949525;28;20424;-52
2023/03/28 00:46:11;;;;;;;5.70;1.80;;;;;;;;;;4987277;28;20432;-55
2023/03/28 00:48:37;;;;;;;2.87;1.60;;;;;;;;;;4985730;28;20495;-56
2023/03/28 00:51:04;;;;;;;2.07;1.70;;;;;;;;;;5004682;28;20497;-55
2023/03/28 00:53:30;;;;;;;2.13;1.10;;;;;;;;;;4954200;28;20633;-55
2023/03/28 00:55:58;;;;;;;1.40;1.20;;;;;;;;;;4974806;28;20470;-55
2023/03/28 00:58:26;;;;;;;4.43;1.37;;;;;;;;;;4967814;28;20448;-55
2023/03/28 01:00:53;;;;;;;4.50;1.90;;;;;;;;;;4992669;28;20991;-55
2023/03/28 01:03:21;;;;;;;2.60;1.20;;;;;;;;;;4964777;28;20526;-56
2023/03/28 01:05:47;;;;;;;1.57;1.30;;;;;;;;;;4993910;28;20866;-54
2023/03/28 01:08:20;;;;;;;3.03;1.87;;;;;;;;;;4969270;28;20448;-55
2023/03/28 01:10:46;;;;;;;2.50;1.47;;;;;;;;;;4999346;28;20450;-55
2023/03/28 01:13:12;;;;;;;1.60;1.27;;;;;;;;;;4958485;28;20437;-56
2023/03/28 01:15:38;;;;;;;2.43;1.60;;;;;;;;;;4987334;28;20436;-55
2023/03/28 01:18:10;;;;;;;2.73;1.47;;;;;;;;;;4941905;28;20566;-56
2023/03/28 01:20:55;;;;;;;2.07;1.47;;;;;;;;;;4991859;28;20488;-55
2023/03/28 01:23:39;;;;;;;3.27;1.80;;;;;;;;;;4955237;28;20567;-55
2023/03/28 01:26:12;;;;;;;3.53;1.60;;;;;;;;;;4983078;28;20976;-55
2023/03/28 01:28:56;;;;;;;5.10;1.47;;;;;;;;;;4946967;28;20522;-56
2023/03/28 01:31:37;;;;;;;1.77;1.63;;;;;;;;;;4985769;28;20451;-56
2023/03/28 01:34:14;;;;;;;1.90;1.30;;;;;;;;;;4968160;28;20460;-55
2023/03/28 01:37:02;;;;;;;2.43;2.00;;;;;;;;;;4967968;28;20491;-54
2023/03/28 01:39:31;;;;;;;9.50;1.60;;;;;;;;;;4999106;28;20432;-56
2023/03/28 01:42:15;;;;;;;2.63;1.43;;;;;;;;;;4980903;28;20513;-56
2023/03/28 01:44:44;;;;;;;2.90;1.43;;;;;;;;;;4989475;28;20519;-55
2023/03/28 01:47:26;;;;;;;3.93;1.30;;;;;;;;;;4956634;28;21504;-62
2023/03/28 01:50:13;;;;;;;5.10;2.23;;;;;;;;;;4960880;28;21145;-56
2023/03/28 01:52:42;;;;;;;1.80;1.53;;;;;;;;;;4990707;28;20953;-54
2023/03/28 01:55:09;;;;;;;4.93;2.00;;;;;;;;;;4952797;28;20448;-56
2023/03/28 01:57:45;;;;;;;3.30;1.83;;;;;;;;;;4980633;28;20440;-54
2023/03/28 02:00:31;;;;;;;1.67;1.30;;;;;;;;;;4960663;28;24013;-55
2023/03/28 02:02:57;;;;;;;3.53;2.10;;;;;;;;;;4979811;28;20440;-55
2023/03/28 02:05:23;;;;;;;2.37;1.60;;;;;;;;;;4951664;28;20451;-56
2023/03/28 02:07:50;;;;;;;3.13;1.53;;;;;;;;;;4987299;28;20453;-56
2023/03/28 02:10:17;;;;;;;2.07;1.50;;;;;;;;;;4979348;28;20444;-54
2023/03/28 02:12:47;;;;;;;5.30;1.60;;;;;;;;;;4982583;28;20432;-55
2023/03/28 02:15:14;;;;;;;3.73;2.20;;;;;;;;;;4970844;28;20456;-55
2023/03/28 02:17:41;;;;;;;2.27;2.07;;;;;;;;;;4981740;28;20439;-55
2023/03/28 02:20:08;;;;;;;3.37;2.20;;;;;;;;;;4934198;28;21110;-55
2023/03/28 02:22:44;;;;;;;1.53;1.27;;;;;;;;;;4987889;28;20440;-54
2023/03/28 02:25:10;;;;;;;2.90;1.77;;;;;;;;;;4960086;28;20464;-53
2023/03/28 02:27:36;;;;;;;3.20;1.93;;;;;;;;;;5000028;28;20464;-54
2023/03/28 02:30:05;;;;;;;4.37;1.77;;;;;;;;;;4970136;28;20492;-59
2023/03/28 02:32:32;;;;;;;4.53;1.60;;;;;;;;;;4987926;28;20538;-55
2023/03/28 02:34:59;;;;;;;2.20;1.60;;;;;;;;;;4968333;28;23403;-55
2023/03/28 02:37:28;;;;;;;2.60;2.00;;;;;;;;;;4981544;28;21027;-54
2023/03/28 02:39:57;;;;;;;3.40;1.60;;;;;;;;;;4985187;28;20481;-55
2023/03/28 02:42:23;;;;;;;4.07;1.77;;;;;;;;;;4991862;28;20424;-55
2023/03/28 02:44:59;;;;;;;6.30;3.20;;;;;;;;;;4987919;28;20590;-56
2023/03/28 02:47:25;;;;;;;4.03;2.07;;;;;;;;;;4996244;28;20470;-56
2023/03/28 02:50:13;;;;;;;3.93;1.93;;;;;;;;;;4981947;28;20467;-56
2023/03/28 02:52:51;;;;;;;1.93;1.40;;;;;;;;;;4973295;28;20675;-55
2023/03/28 02:55:32;;;;;;;2.30;1.93;;;;;;;;;;4966681;28;20474;-56
2023/03/28 02:58:09;;;;;;;2.70;1.67;;;;;;;;;;4996698;28;21028;-56
2023/03/28 03:00:35;;;;;;;3.10;1.80;;;;;;;;;;4971584;28;20570;-55
2023/03/28 03:03:02;;;;;;;3.37;2.10;;;;;;;;;;5001984;28;20984;-56
2023/03/28 03:05:29;;;;;;;3.00;1.87;;;;;;;;;;4966189;28;20510;-55
2023/03/28 03:07:55;;;;;;;2.93;2.07;;;;;;;;;;4986395;28;20428;-55
2023/03/28 03:10:21;;;;;;;7.03;1.90;;;;;;;;;;4971099;28;21148;-56
2023/03/28 03:12:47;;;;;;;3.67;1.83;;;;;;;;;;5000366;28;20435;-56
2023/03/28 03:15:15;;;;;;;4.53;2.33;;;;;;;;;;4984696;28;20455;-56
2023/03/28 03:17:45;;;;;;;3.63;2.07;;;;;;;;;;5000407;28;20427;-55
2023/03/28 03:20:12;;;;;;;2.93;2.40;;;;;;;;;;4974345;28;21261;-59
2023/03/28 03:22:38;;;;;;;2.37;1.67;;;;;;;;;;4999943;28;20769;-56
2023/03/28 03:25:15;;;;;;;3.57;1.80;;;;;;;;;;4980753;28;21587;-58
2023/03/28 03:27:43;;;;;;;3.23;2.40;;;;;;;;;;4963345;28;21896;-55
2023/03/28 03:30:10;;;;;;;3.10;1.93;;;;;;;;;;4994543;28;20483;-56
2023/03/28 03:32:38;;;;;;;5.83;2.57;;;;;;;;;;4965356;28;20528;-54
2023/03/28 03:35:04;;;;;;;2.03;1.83;;;;;;;;;;4995593;28;20440;-56
2023/03/28 03:37:30;;;;;;;2.60;1.87;;;;;;;;;;4966860;28;20522;-56
2023/03/28 03:39:56;;;;;;;2.20;1.90;;;;;;;;;;4992354;28;20522;-55
2023/03/28 03:42:21;;;;;;;3.40;2.10;;;;;;;;;;4965113;28;20479;-56
2023/03/28 03:44:47;;;;;;;3.53;1.83;;;;;;;;;;4969626;28;20448;-57
2023/03/28 03:47:16;;;;;;;3.33;2.60;;;;;;;;;;4984604;28;20445;-57
2023/03/28 03:49:42;;;;;;;4.43;2.53;;;;;;;;;;4988871;28;20463;-57
2023/03/28 03:52:08;;;;;;;3.93;2.33;;;;;;;;;;4986697;28;20514;-56
2023/03/28 03:54:35;;;;;;;5.57;2.17;;;;;;;;;;4976031;28;20444;-54
2023/03/28 03:57:01;;;;;;;2.67;2.10;;;;;;;;;;4970300;28;20498;-55
2023/03/28 03:59:52;;;;;;;7.63;2.10;;;;;;;;;;4979594;28;21025;-56
2023/03/28 04:02:18;;;;;;;5.13;2.43;;;;;;;;;;4973179;28;21517;-55
2023/03/28 04:04:46;;;;;;;3.03;2.13;;;;;;;;;;4977093;28;20467;-56
2023/03/28 04:07:12;;;;;;;3.00;2.70;;;;;;;;;;4978488;28;20547;-56
2023/03/28 04:09:38;;;;;;;2.67;1.80;;;;;;;;;;4987682;28;20428;-56
2023/03/28 04:12:05;;;;;;;4.77;2.10;;;;;;;;;;4961582;28;20444;-53
2023/03/28 04:14:31;;;;;;;2.60;1.93;;;;;;;;;;4993213;28;20519;-54
2023/03/28 04:16:57;;;;;;;3.70;1.67;;;;;;;;;;4961760;28;20443;-57
2023/03/28 04:19:23;;;;;;;4.77;2.50;;;;;;;;;;4978421;28;20455;-54
2023/03/28 04:21:51;;;;;;;4.33;3.43;;;;;;;;;;4981313;28;20444;-54
2023/03/28 04:24:19;;;;;;;3.90;2.83;;;;;;;;;;4982435;28;21030;-55
2023/03/28 04:26:48;;;;;;;6.57;3.90;;;;;;;;;;4944702;28;20436;-57
2023/03/28 04:29:15;;;;;;;6.40;3.40;;;;;;;;;;4991208;28;20594;-54
2023/03/28 04:31:48;;;;;;;5.07;2.63;;;;;;;;;;4956065;28;21024;-55
2023/03/28 04:34:15;;;;;;;4.53;2.57;;;;;;;;;;4999268;28;20464;-54
2023/03/28 04:36:41;;;;;;;7.20;2.57;;;;;;;;;;4963975;28;20524;-56
2023/03/28 04:39:07;;;;;;;3.27;2.27;;;;;;;;;;4990209;28;20423;-55
2023/03/28 04:41:33;;;;;;;2.40;2.00;;;;;;;;;;4996039;28;20575;-54
2023/03/28 04:43:59;;;;;;;4.23;2.27;;;;;;;;;;4997113;28;20462;-55
2023/03/28 04:46:27;;;;;;;2.30;2.00;;;;;;;;;;4953088;28;20456;-57
2023/03/28 04:48:53;;;;;;;2.13;1.93;;;;;;;;;;4963342;28;20448;-56
2023/03/28 04:51:19;;;;;;;2.30;1.80;;;;;;;;;;4988719;28;20436;-56
2023/03/28 04:53:45;;;;;;;2.93;2.10;;;;;;;;;;4991753;28;21283;-55
2023/03/28 04:56:12;;;;;;;4.07;2.50;;;;;;;;;;4992362;28;20493;-55
2023/03/28 04:58:39;;;;;;;4.90;2.57;;;;;;;;;;4979394;28;20476;-55
2023/03/28 05:01:09;;;;;;;6.37;2.37;;;;;;;;;;4980904;28;20472;-57
2023/03/28 05:03:42;;;;;;;5.00;1.70;;;;;;;;;;4974273;28;21494;-54
2023/03/28 05:06:11;;;;;;;2.50;1.80;;;;;;;;;;4959766;28;21060;-56
2023/03/28 05:08:37;;;;;;;2.33;1.90;;;;;;;;;;4992225;28;20453;-56
2023/03/28 05:11:03;;;;;;;4.07;2.70;;;;;;;;;;4963433;28;20432;-54
2023/03/28 05:13:29;;;;;;;6.73;2.50;;;;;;;;;;4997442;28;20456;-56
2023/03/28 05:15:55;;;;;;;3.80;2.00;;;;;;;;;;4993067;28;20447;-56
2023/03/28 05:18:21;;;;;;;8.17;2.23;;;;;;;;;;4986077;28;20444;-56
2023/03/28 05:20:47;;;;;;;8.43;3.77;;;;;;;;;;4956190;28;20502;-56
2023/03/28 05:23:13;;;;;;;3.33;2.40;;;;;;;;;;4985856;28;20446;-56
2023/03/28 05:25:39;;;;;;;4.50;2.53;;;;;;;;;;4992501;28;20499;-56
2023/03/28 05:28:05;;;;;;;3.60;3.30;;;;;;;;;;4989172;28;20517;-53
2023/03/28 05:30:31;;;;;;;2.80;2.47;;;;;;;;;;4969473;28;20436;-54
2023/03/28 05:32:57;;;;;;;1.73;1.60;;;;;;;;;;4991886;28;21443;-55
2023/03/28 05:35:23;;;;;;;2.90;1.97;;;;;;;;;;4944402;28;21330;-56
2023/03/28 05:37:50;;;;;;;4.03;2.00;;;;;;;;;;4990144;28;20452;-56
2023/03/28 05:40:16;;;;;;;3.47;2.50;;;;;;;;;;4962177;28;20464;-56
2023/03/28 05:42:42;;;;;;;3.33;1.93;;;;;;;;;;4996845;28;20442;-56
2023/03/28 05:45:08;;;;;;;3.50;2.27;;;;;;;;;;4963131;28;21194;-55
2023/03/28 05:47:34;;;;;;;4.90;2.97;;;;;;;;;;4981514;28;20439;-56
2023/03/28 05:50:00;;;;;;;5.20;2.53;;;;;;;;;;4958137;28;22223;-55
2023/03/28 05:52:26;;;;;;;4.47;2.70;;;;;;;;;;4988577;28;20515;-55
2023/03/28 05:54:55;;;;;;;5.73;2.70;;;;;;;;;;4979668;28;21164;-55
2023/03/28 05:57:21;;;;;;;4.80;2.83;;;;;;;;;;4986467;28;20434;-53
2023/03/28 05:59:47;;;;;;;6.03;4.00;;;;;;;;;;4985658;28;20859;-59
2023/03/28 06:02:13;;;;;;;8.93;4.73;;;;;;;;;;4992250;28;20447;-56
2023/03/28 06:04:52;;;;;;;5.87;3.80;;;;;;;;;;4969581;28;20439;-54
2023/03/28 06:07:18;;;;;;;8.53;3.67;;;;;;;;;;4953933;28;20437;-54
2023/03/28 06:09:45;;;;;;;6.60;3.20;;;;;;;;;;4994244;28;20452;-55
2023/03/28 06:12:11;;;;;;;7.70;3.50;;;;;;;;;;4974507;28;21211;-56
2023/03/28 06:14:37;;;;;;;3.03;2.63;;;;;;;;;;4991817;28;20445;-57
2023/03/28 06:17:03;;;;;;;5.10;2.53;;;;;;;;;;4965122;28;20440;-59
2023/03/28 06:19:29;;;;;;;7.60;3.23;;;;;;;;;;4993954;28;20443;-55
2023/03/28 06:21:55;;;;;;;5.57;3.40;;;;;;;;;;4958905;28;20483;-58
2023/03/28 06:24:21;;;;;;;4.00;3.17;;;;;;;;;;4997851;28;20436;-57
2023/03/28 06:26:47;;;;;;;13.50;5.60;;;;;;;;;;4985548;28;20474;-58
2023/03/28 06:29:14;;;;;;;14.67;10.00;;;;;;;;;;4996498;28;20432;-58
2023/03/28 06:31:40;;;;;;;17.03;10.20;;;;;;;;;;4991737;28;21122;-57
2023/03/28 06:34:06;;;;;;;5.60;4.27;;;;;;;;;;4981596;28;20447;-56
2023/03/28 06:36:32;;;;;;;6.47;4.43;;;;;;;;;;4953222;28;20447;-56
2023/03/28 06:39:00;;;;;;;6.50;4.37;;;;;;;;;;4995211;28;20431;-57
2023/03/28 06:41:26;;;;;;;5.40;3.60;;;;;;;;;;4938806;28;20481;-59
2023/03/28 06:43:52;;;;;;;6.60;4.10;;;;;;;;;;4997455;28;20435;-56
2023/03/28 06:46:19;;;;;;;4.07;3.20;;;;;;;;;;4974477;28;20828;-58
2023/03/28 06:48:45;;;;;;;4.80;2.27;;;;;;;;;;4997406;28;20519;-58
2023/03/28 06:51:12;;;;;;;5.20;2.80;;;;;;;;;;4968914;28;20769;-57
2023/03/28 06:53:38;;;;;;;2.60;2.40;;;;;;;;;;4999837;28;20429;-56
2023/03/28 06:56:05;;;;;;;10.70;2.60;;;;;;;;;;4989131;28;22452;-56
2023/03/28 06:58:31;;;;;;;4.87;2.17;;;;;;;;;;4998554;28;20437;-57
2023/03/28 07:01:00;;;;;;;4.20;2.57;;;;;;;;;;4971405;28;20479;-57
2023/03/28 07:03:28;;;;;;;1.93;1.40;;;;;;;;;;4995142;28;20448;-59
2023/03/28 07:05:54;;;;;;;3.57;1.70;;;;;;;;;;4949260;28;20613;-57
2023/03/28 07:08:20;;;;;;;6.20;3.23;;;;;;;;;;4993270;28;20911;-59
2023/03/28 07:10:46;;;;;;;3.13;2.20;;;;;;;;;;4966789;28;20452;-60
2023/03/28 07:13:12;;;;;;;3.47;1.50;;;;;;;;;;5002406;28;20446;-57
2023/03/28 07:15:38;;;;;;;6.53;2.43;;;;;;;;;;4990515;28;20436;-56
2023/03/28 07:18:05;;;;;;;2.00;1.80;;;;;;;;;;4995896;28;20585;-57
2023/03/28 07:20:31;;;;;;;2.27;2.00;;;;;;;;;;4972127;28;20892;-58
2023/03/28 07:22:57;;;;;;;4.23;2.60;;;;;;;;;;4983481;28;20947;-58
2023/03/28 07:25:24;;;;;;;2.97;2.23;;;;;;;;;;4967322;28;20448;-60
2023/03/28 07:27:51;;;;;;;3.63;2.20;;;;;;;;;;4998406;28;20276;-58
2023/03/28 07:30:17;;;;;;;3.43;3.00;;;;;;;;;;4968097;28;20949;-57
2023/03/28 07:32:43;;;;;;;4.70;2.70;;;;;;;;;;4985779;28;20435;-57
2023/03/28 07:35:09;;;;;;;5.20;3.33;;;;;;;;;;4986500;28;20608;-58
2023/03/28 07:37:35;;;;;;;3.80;2.40;;;;;;;;;;4991631;28;20475;-58
2023/03/28 07:40:09;;;;;;;5.27;2.30;;;;;;;;;;4980697;28;20566;-58
2023/03/28 07:42:40;;;;;;;7.57;2.80;;;;;;;;;;4980263;28;20806;-57
2023/03/28 07:45:06;;;;;;;2.40;1.73;;;;;;;;;;4999048;28;20451;-58
2023/03/28 07:47:32;;;;;;;7.80;2.40;;;;;;;;;;4984905;28;20448;-56
2023/03/28 07:49:58;;;;;;;6.03;1.80;;;;;;;;;;4998647;28;20937;-57
2023/03/28 07:52:24;;;;;;;7.70;3.00;;;;;;;;;;4983064;28;20436;-57
2023/03/28 07:54:50;;;;;;;3.20;2.40;;;;;;;;;;5002137;28;20507;-58
2023/03/28 07:57:16;;;;;;;2.30;1.70;;;;;;;;;;4972467;28;20460;-58
2023/03/28 07:59:42;;;;;;;2.37;2.00;;;;;;;;;;4996600;28;20992;-58
2023/03/28 08:02:11;;;;;;;7.30;2.37;;;;;;;;;;4970525;28;20492;-57
2023/03/28 08:04:36;;;;;;;5.33;2.67;;;;;;;;;;5000930;28;20432;-58
2023/03/28 08:07:02;;;;;;;3.07;2.23;;;;;;;;;;4994297;28;20460;-57
2023/03/28 08:09:28;;;;;;;4.93;1.70;;;;;;;;;;5001825;28;20509;-57
2023/03/28 08:11:54;;;;;;;4.17;2.33;;;;;;;;;;4961209;28;20838;-58
2023/03/28 08:14:20;;;;;;;4.73;2.10;;;;;;;;;;5002650;28;20443;-57
2023/03/28 08:16:46;;;;;;;11.93;2.30;;;;;;;;;;4986601;28;20442;-58
2023/03/28 08:19:12;;;;;;;3.60;2.03;;;;;;;;;;4977740;28;20879;-56
2023/03/28 08:21:39;;;;;;;2.90;1.50;;;;;;;;;;4994752;28;20484;-58
2023/03/28 08:24:06;;;;;;;2.77;1.70;;;;;;;;;;4996458;28;20486;-58
2023/03/28 08:26:32;;;;;;;2.40;1.37;;;;;;;;;;4999102;28;20435;-58
2023/03/28 08:28:58;;;;;;;2.50;1.93;;;;;;;;;;4970278;28;20589;-58
2023/03/28 08:31:25;;;;;;;3.67;1.60;;;;;;;;;;4973267;28;20472;-57
2023/03/28 08:33:51;;;;;;;3.57;2.00;;;;;;;;;;4999442;28;20515;-57
2023/03/28 08:36:17;;;;;;;3.10;1.60;;;;;;;;;;4973560;28;20927;-59
2023/03/28 08:38:43;;;;;;;2.03;1.83;;;;;;;;;;5000794;28;20879;-59
2023/03/28 08:41:18;;;;;;;3.40;3.07;;;;;;;;;;4975679;28;20531;-55
2023/03/28 08:43:44;;;;;;;6.90;1.80;;;;;;;;;;4996585;28;20420;-55
2023/03/28 08:46:11;;;;;;;2.77;1.70;;;;;;;;;;4964864;28;20451;-55
2023/03/28 08:48:39;;;;;;;3.70;1.93;;;;;;;;;;4995781;28;20532;-56
2023/03/28 08:51:11;;;;;;;1.63;1.20;;;;;;;;;;4984165;28;20567;-58
2023/03/28 08:53:42;;;;;;;3.20;1.67;;;;;;;;;;4984527;28;20444;-58
2023/03/28 08:56:09;;;;;;;3.13;2.07;;;;;;;;;;4991806;28;20821;-58
2023/03/28 08:58:56;;;;;;;3.20;2.07;;;;;;;;;;4977133;28;20447;-57
2023/03/28 09:01:23;;;;;;;1.80;1.50;;;;;;;;;;4980817;28;21135;-59
2023/03/28 09:03:49;;;;;;;3.60;2.07;;;;;;;;;;4987522;28;20439;-58
2023/03/28 09:06:20;;;;;;;3.50;2.03;;;;;;;;;;4999292;28;20427;-58
2023/03/28 09:08:47;;;;;;;2.90;1.80;;;;;;;;;;4990774;28;20440;-57
2023/03/28 09:11:20;;;;;;;2.80;2.10;;;;;;;;;;4998770;28;20488;-58
2023/03/28 09:13:58;;;;;;;2.97;2.50;;;;;;;;;;5002114;28;20427;-58
2023/03/28 09:16:43;;;;;;;4.37;2.00;;;;;;;;;;4987581;28;21391;-58
2023/03/28 09:19:11;;;;;;;3.00;1.50;;;;;;;;;;4992779;28;21013;-58
2023/03/28 09:21:56;;;;;;;1.47;1.20;;;;;;;;;;4976569;28;20531;-58
2023/03/28 09:24:46;;;;;;;3.53;1.77;;;;;;;;;;4999029;28;20439;-59
2023/03/28 09:27:19;;;;;;;3.47;1.73;;;;;;;;;;4999017;28;20444;-57
2023/03/28 09:29:45;;;;;;;3.20;1.67;;;;;;;;;;4997122;28;20424;-58
2023/03/28 09:32:22;;;;;;;3.53;1.87;;;;;;;;;;4965931;28;21012;-59
2023/03/28 09:34:48;;;;;;;10.70;2.00;;;;;;;;;;4998232;28;20440;-59
2023/03/28 09:37:34;;;;;;;5.73;1.47;;;;;;;;;;4995637;28;20631;-58
2023/03/28 09:40:24;;;;;;;3.17;2.03;;;;;;;;;;4997121;28;20487;-59
2023/03/28 09:42:54;;;;;;;2.27;1.70;;;;;;;;;;4994196;28;20502;-59
2023/03/28 09:45:35;;;;;;;3.93;1.80;;;;;;;;;;4993978;28;20455;-58
2023/03/28 09:48:05;;;;;;;5.93;1.70;;;;;;;;;;4991224;28;20445;-59
2023/03/28 09:50:31;;;;;;;4.03;1.93;;;;;;;;;;4981277;28;20827;-58
2023/03/28 09:52:57;;;;;;;2.00;1.60;;;;;;;;;;4964842;28;20565;-58
2023/03/28 09:55:24;;;;;;;3.47;1.60;;;;;;;;;;5000809;28;20442;-60
2023/03/28 09:57:59;;;;;;;4.73;1.87;;;;;;;;;;4972159;28;20520;-59
2023/03/28 10:00:25;;;;;;;3.40;1.80;;;;;;;;;;4990610;28;20546;-59
2023/03/28 10:02:52;;;;;;;4.40;1.70;;;;;;;;;;4990044;28;21327;-59
2023/03/28 10:05:30;;;;;;;2.20;1.70;;;;;;;;;;4992248;28;20489;-60
2023/03/28 10:07:57;;;;;;;1.67;1.40;;;;;;;;;;4963490;28;20451;-59
2023/03/28 10:10:23;;;;;;;1.90;1.53;;;;;;;;;;4996590;28;20811;-57
2023/03/28 10:12:52;;;;;;;2.90;1.73;;;;;;;;;;4973696;28;20448;-59
2023/03/28 10:15:37;;;;;;;4.20;1.80;;;;;;;;;;4998364;28;20448;-58
2023/03/28 10:18:03;;;;;;;10.33;1.90;;;;;;;;;;4994646;28;20494;-56
2023/03/28 10:20:32;;;;;;;2.60;1.80;;;;;;;;;;4991993;28;20615;-60
2023/03/28 10:22:58;;;;;;;3.43;1.87;;;;;;;;;;4992646;28;20703;-58
2023/03/28 10:25:30;;;;;;;3.10;1.60;;;;;;;;;;4996794;28;20969;-59
2023/03/28 10:27:59;;;;;;;2.70;1.53;;;;;;;;;;4960549;28;20439;-59
2023/03/28 10:30:26;;;;;;;1.90;1.60;;;;;;;;;;4996848;28;20451;-62
2023/03/28 10:33:10;;;;;;;3.80;2.00;;;;;;;;;;4972420;28;20448;-59
2023/03/28 10:35:40;;;;;;;3.40;2.23;;;;;;;;;;4997061;28;20497;-59
2023/03/28 10:38:09;;;;;;;2.07;1.57;;;;;;;;;;4994602;28;20547;-58
2023/03/28 10:40:35;;;;;;;5.30;1.90;;;;;;;;;;4998167;28;20547;-57
2023/03/28 10:43:01;;;;;;;5.07;1.90;;;;;;;;;;4972414;28;20455;-58
2023/03/28 10:45:33;;;;;;;2.77;1.87;;;;;;;;;;4994239;28;20440;-57
2023/03/28 10:47:59;;;;;;;6.33;1.80;;;;;;;;;;4995554;28;20437;-56
2023/03/28 10:50:36;;;;;;;5.07;1.93;;;;;;;;;;5014389;28;20625;-58
2023/03/28 10:53:15;;;;;;;5.13;2.37;;;;;;;;;;4985601;28;20478;-58
2023/03/28 10:55:46;;;;;;;5.60;2.40;;;;;;;;;;4999361;28;20464;-59
2023/03/28 10:58:21;;;;;;;2.57;1.70;;;;;;;;;;4991081;28;20503;-59
2023/03/28 11:01:00;;;;;;;6.93;2.20;;;;;;;;;;4999301;28;20514;-58
2023/03/28 11:03:34;;;;;;;2.80;1.63;;;;;;;;;;4975315;28;21068;-58
2023/03/28 11:06:07;;;;;;;1.83;1.60;;;;;;;;;;4971598;28;21237;-59
2023/03/28 11:08:38;;;;;;;2.30;2.07;;;;;;;;;;4997238;28;20432;-58
2023/03/28 11:11:12;;;;;;;4.53;1.70;;;;;;;;;;4972729;28;20444;-58
2023/03/28 11:13:53;;;;;;;2.43;1.70;;;;;;;;;;5002426;28;20468;-57
2023/03/28 11:16:19;;;;;;;2.90;2.03;;;;;;;;;;4974571;28;20457;-58
2023/03/28 11:18:52;;;;;;;2.77;2.10;;;;;;;;;;5001087;28;20443;-60
2023/03/28 11:21:18;;;;;;;3.27;2.00;;;;;;;;;;4990465;28;21417;-59
2023/03/28 11:23:45;;;;;;;2.00;1.53;;;;;;;;;;4990951;28;20939;-58
2023/03/28 11:26:15;;;;;;;1.93;1.73;;;;;;;;;;4980345;28;20603;-59
2023/03/28 11:28:41;;;;;;;4.00;1.83;;;;;;;;;;4992872;28;20988;-60
2023/03/28 11:31:08;;;;;;;10.20;1.70;;;;;;;;;;4964305;28;20435;-59
2023/03/28 11:33:40;;;;;;;7.23;2.27;;;;;;;;;;5001296;28;20231;-59
2023/03/28 11:36:07;;;;;;;4.00;2.10;;;;;;;;;;4958191;28;20945;-59
2023/03/28 11:38:35;;;;;;;4.70;2.33;;;;;;;;;;5001707;28;20478;-61
2023/03/28 11:41:13;;;;;;;3.00;1.83;;;;;;;;;;4978005;28;20482;-59
2023/03/28 11:43:47;;;;;;;2.83;2.00;;;;;;;;;;4987046;28;20588;-58
2023/03/28 11:46:14;;;;;;;2.70;1.97;;;;;;;;;;4999961;28;20498;-59
2023/03/28 11:48:45;;;;;;;2.70;2.13;;;;;;;;;;5000293;28;20440;-59
2023/03/28 11:51:12;;;;;;;3.20;1.73;;;;;;;;;;4970092;28;20446;-58
2023/03/28 11:53:42;;;;;;;4.80;1.57;;;;;;;;;;5015962;28;20523;-58
2023/03/28 11:56:11;;;;;;;3.27;2.03;;;;;;;;;;4997493;28;20421;-59
2023/03/28 11:58:37;;;;;;;3.17;2.10;;;;;;;;;;4995795;28;20428;-58
2023/03/28 12:01:05;;;;;;;6.00;2.00;;;;;;;;;;4990386;28;20983;-60
2023/03/28 12:03:33;;;;;;;4.00;1.87;;;;;;;;;;4992778;28;20444;-59
2023/03/28 12:06:12;;;;;;;3.20;1.80;;;;;;;;;;4959822;28;20445;-59
2023/03/28 12:08:43;;;;;;;3.60;1.60;;;;;;;;;;4997290;28;20444;-59
2023/03/28 12:11:11;;;;;;;3.60;1.70;;;;;;;;;;4964124;28;20435;-60
2023/03/28 12:14:04;;;;;;;7.00;1.90;;;;;;;;;;5003030;28;20436;-61
2023/03/28 12:16:31;;;;;;;5.00;2.03;;;;;;;;;;4976604;28;23576;-59
2023/03/28 12:18:58;;;;;;;2.80;2.10;;;;;;;;;;4998918;28;20447;-58
2023/03/28 12:21:33;;;;;;;3.67;2.23;;;;;;;;;;4999344;28;20827;-58
2023/03/28 12:24:34;;;;;;;3.50;2.10;;;;;;;;;;5000481;28;20460;-58
2023/03/28 12:27:08;;;;;;;2.40;1.90;;;;;;;;;;4973986;28;20438;-58
2023/03/28 12:29:48;;;;;;;4.67;1.70;;;;;;;;;;4967401;28;20451;-59
2023/03/28 12:32:33;;;;;;;5.20;1.83;;;;;;;;;;4994005;28;20463;-58
2023/03/28 12:35:17;;;;;;;4.53;2.03;;;;;;;;;;4969334;28;20561;-58
2023/03/28 12:37:56;;;;;;;2.80;1.50;;;;;;;;;;4979286;28;20439;-57
2023/03/28 12:40:35;;;;;;;2.53;1.77;;;;;;;;;;4994881;28;20522;-59
2023/03/28 12:43:01;;;;;;;6.20;1.63;;;;;;;;;;4976249;28;20444;-59
2023/03/28 12:45:28;;;;;;;6.20;1.90;;;;;;;;;;5000960;28;20447;-58
2023/03/28 12:47:55;;;;;;;3.83;1.97;;;;;;;;;;4980442;28;20185;-57
2023/03/28 12:50:28;;;;;;;3.20;2.07;;;;;;;;;;4995887;28;20607;-57
2023/03/28 12:52:54;;;;;;;6.20;2.07;;;;;;;;;;4973643;28;20444;-58
2023/03/28 12:55:23;;;;;;;5.50;1.80;;;;;;;;;;5006015;28;20569;-59
2023/03/28 12:57:49;;;;;;;2.50;2.03;;;;;;;;;;4975521;28;20200;-58
2023/03/28 13:00:28;;;;;;;2.73;1.50;;;;;;;;;;4998499;28;20468;-58
2023/03/28 13:03:13;;;;;;;5.70;1.90;;;;;;;;;;5001710;28;20446;-58
2023/03/28 13:05:54;;;;;;;4.23;1.70;;;;;;;;;;4998306;28;20447;-58
2023/03/28 13:08:36;;;;;;;4.20;1.73;;;;;;;;;;4952707;28;20523;-60
2023/03/28 13:11:06;;;;;;;2.63;1.83;;;;;;;;;;4995099;28;20436;-60
2023/03/28 13:13:52;;;;;;;4.23;1.73;;;;;;;;;;4993610;28;20505;-60
2023/03/28 13:16:23;;;;;;;6.07;3.23;;;;;;;;;;4997829;28;20454;-59
2023/03/28 13:19:15;;;;;;;4.47;2.63;;;;;;;;;;4974661;28;21576;-61
2023/03/28 13:21:48;;;;;;;3.70;2.17;;;;;;;;;;4996757;28;20476;-59
2023/03/28 13:24:27;;;;;;;4.60;2.10;;;;;;;;;;4971592;28;20448;-60
2023/03/28 13:26:57;;;;;;;3.47;2.20;;;;;;;;;;5000349;28;20579;-58
2023/03/28 13:29:42;;;;;;;5.23;2.10;;;;;;;;;;4966476;28;20448;-60
2023/03/28 13:32:09;;;;;;;4.13;2.13;;;;;;;;;;4987042;28;20444;-60
2023/03/28 13:34:35;;;;;;;3.50;1.90;;;;;;;;;;4993163;28;20475;-60
2023/03/28 13:37:19;;;;;;;3.27;2.10;;;;;;;;;;5001613;28;20439;-60
2023/03/28 13:39:58;;;;;;;4.03;2.47;;;;;;;;;;4957806;28;20752;-59
2023/03/28 13:42:25;;;;;;;8.20;2.43;;;;;;;;;;5001664;28;21758;-60
2023/03/28 13:44:51;;;;;;;4.10;2.20;;;;;;;;;;4970086;28;20432;-58
2023/03/28 13:47:22;;;;;;;2.60;2.20;;;;;;;;;;4995634;28;20486;-58
2023/03/28 13:49:53;;;;;;;4.97;3.20;;;;;;;;;;4995422;28;20444;-59
2023/03/28 13:52:22;;;;;;;4.07;2.13;;;;;;;;;;5001083;28;20500;-58
2023/03/28 13:54:57;;;;;;;3.07;1.90;;;;;;;;;;4978463;28;20452;-59
2023/03/28 13:57:26;;;;;;;3.57;1.90;;;;;;;;;;5000178;28;20458;-57
2023/03/28 13:59:57;;;;;;;3.23;2.00;;;;;;;;;;4970530;28;20464;-58
2023/03/28 14:02:30;;;;;;;2.93;2.00;;;;;;;;;;5001592;28;20438;-58
2023/03/28 14:04:56;;;;;;;3.67;1.63;;;;;;;;;;4974361;28;20487;-58
2023/03/28 14:07:23;;;;;;;3.57;1.60;;;;;;;;;;4996316;28;20539;-60
2023/03/28 14:09:50;;;;;;;2.60;1.87;;;;;;;;;;4962357;28;20512;-61
2023/03/28 14:12:17;;;;;;;2.53;1.77;;;;;;;;;;5005465;28;21311;-59
2023/03/28 14:14:47;;;;;;;2.20;2.00;;;;;;;;;;4996833;28;20939;-59
2023/03/28 14:17:14;;;;;;;3.40;1.90;;;;;;;;;;4994217;28;20460;-60
2023/03/28 14:19:41;;;;;;;2.97;1.83;;;;;;;;;;4996128;28;21060;-58
2023/03/28 14:22:08;;;;;;;4.50;1.63;;;;;;;;;;4999954;28;20558;-58
2023/03/28 14:24:34;;;;;;;3.13;1.73;;;;;;;;;;4974653;28;20439;-59
2023/03/28 14:27:12;;;;;;;3.67;1.90;;;;;;;;;;4995873;28;20456;-58
2023/03/28 14:29:58;;;;;;;3.00;1.60;;;;;;;;;;4964779;28;20443;-58
2023/03/28 14:32:31;;;;;;;2.10;1.70;;;;;;;;;;4992861;28;20566;-59
2023/03/28 14:35:26;;;;;;;3.30;1.70;;;;;;;;;;4994434;28;20980;-58
2023/03/28 14:37:53;;;;;;;2.23;1.50;;;;;;;;;;4979703;28;20543;-57
2023/03/28 14:40:22;;;;;;;4.20;1.60;;;;;;;;;;4974586;28;20463;-59
2023/03/28 14:42:54;;;;;;;2.37;1.90;;;;;;;;;;4953709;28;23546;-57
2023/03/28 14:45:21;;;;;;;3.67;2.10;;;;;;;;;;4986846;28;20450;-58
2023/03/28 14:47:47;;;;;;;4.70;2.50;;;;;;;;;;4982721;28;20451;-60
2023/03/28 14:50:14;;;;;;;2.70;1.40;;;;;;;;;;4998333;28;20428;-59
2023/03/28 14:52:43;;;;;;;2.67;1.80;;;;;;;;;;4966203;28;20189;-59
2023/03/28 14:55:17;;;;;;;1.70;1.20;;;;;;;;;;4983836;28;20436;-58
2023/03/28 14:57:44;;;;;;;2.40;1.63;;;;;;;;;;5003546;28;20494;-59
2023/03/28 15:00:13;;;;;;;2.80;1.40;;;;;;;;;;4994890;28;20495;-58